sensor_id;sensor_type;location;lat;lon;timestamp;pressure;altitude;pressure_sealevel;temperature;humidity
39793;BME280;26080;42.264;24.536;2022-08-06T00:00:40;99002.00;;;22.00;85.53
39793;BME280;26080;42.264;24.536;2022-08-06T00:03:07;99002.41;;;22.05;84.83
39793;BME280;26080;42.264;24.536;2022-08-06T00:05:33;98995.81;;;22.09;84.64
39793;BME280;26080;42.264;24.536;2022-08-06T00:07:58;99005.16;;;22.13;84.95
39793;BME280;26080;42.264;24.536;2022-08-06T00:10:24;99003.59;;;22.21;84.67
39793;BME280;26080;42.264;24.536;2022-08-06T00:12:51;99003.72;;;22.37;84.76
39793;BME280;26080;42.264;24.536;2022-08-06T00:15:17;98979.03;;;22.35;83.51
39793;BME280;26080;42.264;24.536;2022-08-06T00:17:44;99004.66;;;22.54;83.55
39793;BME280;26080;42.264;24.536;2022-08-06T00:20:11;99008.25;;;22.62;82.87
39793;BME280;26080;42.264;24.536;2022-08-06T00:22:37;99008.84;;;22.56;82.94
39793;BME280;26080;42.264;24.536;2022-08-06T00:25:03;99004.81;;;22.52;82.93
39793;BME280;26080;42.264;24.536;2022-08-06T00:27:29;98987.69;;;22.37;83.31
39793;BME280;26080;42.264;24.536;2022-08-06T00:29:55;98999.66;;;22.33;83.90
39793;BME280;26080;42.264;24.536;2022-08-06T00:32:20;98998.81;;;22.32;83.40
39793;BME280;26080;42.264;24.536;2022-08-06T00:34:46;99004.31;;;22.31;83.63
39793;BME280;26080;42.264;24.536;2022-08-06T00:37:11;99007.28;;;22.28;84.18
39793;BME280;26080;42.264;24.536;2022-08-06T00:39:36;99004.88;;;22.34;83.38
39793;BME280;26080;42.264;24.536;2022-08-06T00:42:02;99002.31;;;22.33;83.37
39793;BME280;26080;42.264;24.536;2022-08-06T00:44:28;98999.38;;;22.36;83.05
39793;BME280;26080;42.264;24.536;2022-08-06T00:46:53;99005.38;;;22.38;82.88
39793;BME280;26080;42.264;24.536;2022-08-06T00:49:19;98997.06;;;22.41;82.70
39793;BME280;26080;42.264;24.536;2022-08-06T00:51:44;98990.59;;;22.26;83.32
39793;BME280;26080;42.264;24.536;2022-08-06T00:54:10;98999.59;;;22.25;83.73
39793;BME280;26080;42.264;24.536;2022-08-06T00:56:36;98992.81;;;22.30;83.35
39793;BME280;26080;42.264;24.536;2022-08-06T00:59:03;98994.78;;;22.28;83.41
39793;BME280;26080;42.264;24.536;2022-08-06T01:01:28;98999.13;;;22.29;83.33
39793;BME280;26080;42.264;24.536;2022-08-06T01:03:54;98966.84;;;22.14;83.13
39793;BME280;26080;42.264;24.536;2022-08-06T01:06:19;98997.94;;;22.24;83.75
39793;BME280;26080;42.264;24.536;2022-08-06T01:08:45;98990.69;;;22.16;84.12
39793;BME280;26080;42.264;24.536;2022-08-06T01:11:11;99003.66;;;22.11;84.65
39793;BME280;26080;42.264;24.536;2022-08-06T01:13:36;98999.75;;;22.05;85.04
39793;BME280;26080;42.264;24.536;2022-08-06T01:16:10;98998.31;;;22.11;85.18
39793;BME280;26080;42.264;24.536;2022-08-06T01:18:50;99004.50;;;22.11;84.73
39793;BME280;26080;42.264;24.536;2022-08-06T01:27:15;98997.00;;;21.97;85.44
39793;BME280;26080;42.264;24.536;2022-08-06T01:29:48;98998.28;;;21.93;85.64
39793;BME280;26080;42.264;24.536;2022-08-06T01:32:19;98990.75;;;22.06;85.87
39793;BME280;26080;42.264;24.536;2022-08-06T01:34:53;98997.59;;;21.91;87.09
39793;BME280;26080;42.264;24.536;2022-08-06T01:39:56;98999.78;;;21.78;85.97
39793;BME280;26080;42.264;24.536;2022-08-06T01:42:25;98990.72;;;21.71;85.88
39793;BME280;26080;42.264;24.536;2022-08-06T01:44:52;98991.41;;;21.55;87.10
39793;BME280;26080;42.264;24.536;2022-08-06T01:47:20;98989.47;;;21.47;88.35
39793;BME280;26080;42.264;24.536;2022-08-06T01:49:53;98999.63;;;21.34;89.73
39793;BME280;26080;42.264;24.536;2022-08-06T01:52:20;98995.78;;;21.09;90.71
39793;BME280;26080;42.264;24.536;2022-08-06T01:54:49;99000.56;;;21.06;91.86
39793;BME280;26080;42.264;24.536;2022-08-06T01:57:17;98989.69;;;20.99;92.32
39793;BME280;26080;42.264;24.536;2022-08-06T01:59:47;99007.06;;;20.93;93.00
39793;BME280;26080;42.264;24.536;2022-08-06T02:02:17;98995.03;;;20.89;93.20
39793;BME280;26080;42.264;24.536;2022-08-06T02:04:45;98994.91;;;20.81;94.09
39793;BME280;26080;42.264;24.536;2022-08-06T02:07:13;98991.44;;;20.71;95.41
39793;BME280;26080;42.264;24.536;2022-08-06T02:09:42;98992.22;;;20.81;94.83
39793;BME280;26080;42.264;24.536;2022-08-06T02:12:12;98991.69;;;20.87;94.52
39793;BME280;26080;42.264;24.536;2022-08-06T02:14:53;98982.75;;;20.69;95.17
39793;BME280;26080;42.264;24.536;2022-08-06T02:17:25;98982.50;;;20.62;95.84
39793;BME280;26080;42.264;24.536;2022-08-06T02:19:53;98967.97;;;20.47;95.71
39793;BME280;26080;42.264;24.536;2022-08-06T02:22:21;98981.53;;;20.54;94.95
39793;BME280;26080;42.264;24.536;2022-08-06T02:24:48;98953.97;;;20.35;95.57
39793;BME280;26080;42.264;24.536;2022-08-06T02:27:15;98979.97;;;20.61;94.83
39793;BME280;26080;42.264;24.536;2022-08-06T02:29:42;98984.75;;;20.57;96.92
39793;BME280;26080;42.264;24.536;2022-08-06T02:32:09;98980.28;;;20.58;98.03
39793;BME280;26080;42.264;24.536;2022-08-06T02:34:36;98977.91;;;20.45;99.77
39793;BME280;26080;42.264;24.536;2022-08-06T02:37:06;98971.91;;;20.43;100.00
39793;BME280;26080;42.264;24.536;2022-08-06T02:39:41;98966.69;;;20.41;100.00
39793;BME280;26080;42.264;24.536;2022-08-06T02:42:14;98954.41;;;20.31;100.00
39793;BME280;26080;42.264;24.536;2022-08-06T02:45:01;98964.31;;;20.38;100.00
39793;BME280;26080;42.264;24.536;2022-08-06T02:50:27;98978.59;;;20.57;100.00
39793;BME280;26080;42.264;24.536;2022-08-06T02:52:57;98970.72;;;20.65;100.00
39793;BME280;26080;42.264;24.536;2022-08-06T02:55:26;98985.25;;;20.80;100.00
39793;BME280;26080;42.264;24.536;2022-08-06T02:58:04;98986.00;;;20.53;100.00
39793;BME280;26080;42.264;24.536;2022-08-06T03:00:36;98975.53;;;20.42;100.00
39793;BME280;26080;42.264;24.536;2022-08-06T03:03:04;98972.44;;;20.37;100.00
39793;BME280;26080;42.264;24.536;2022-08-06T03:05:32;98976.06;;;20.26;100.00
39793;BME280;26080;42.264;24.536;2022-08-06T03:08:00;98975.97;;;20.18;100.00
39793;BME280;26080;42.264;24.536;2022-08-06T03:10:28;98977.19;;;20.14;100.00
39793;BME280;26080;42.264;24.536;2022-08-06T03:12:56;98986.16;;;20.23;100.00
39793;BME280;26080;42.264;24.536;2022-08-06T03:15:23;98981.38;;;20.36;100.00
39793;BME280;26080;42.264;24.536;2022-08-06T03:17:50;98960.25;;;20.25;100.00
39793;BME280;26080;42.264;24.536;2022-08-06T03:20:20;98984.06;;;20.26;100.00
39793;BME280;26080;42.264;24.536;2022-08-06T03:22:50;98979.31;;;20.20;100.00
39793;BME280;26080;42.264;24.536;2022-08-06T03:25:16;98986.16;;;20.23;100.00
39793;BME280;26080;42.264;24.536;2022-08-06T03:27:43;98985.03;;;20.25;100.00
39793;BME280;26080;42.264;24.536;2022-08-06T03:30:12;98971.34;;;20.10;100.00
39793;BME280;26080;42.264;24.536;2022-08-06T03:32:38;98956.22;;;20.11;100.00
39793;BME280;26080;42.264;24.536;2022-08-06T03:35:04;98988.81;;;20.32;100.00
39793;BME280;26080;42.264;24.536;2022-08-06T03:37:30;98978.88;;;20.34;100.00
39793;BME280;26080;42.264;24.536;2022-08-06T03:39:58;98967.94;;;20.37;100.00
39793;BME280;26080;42.264;24.536;2022-08-06T03:42:25;98976.50;;;20.31;100.00
39793;BME280;26080;42.264;24.536;2022-08-06T03:44:50;98990.34;;;20.35;100.00
39793;BME280;26080;42.264;24.536;2022-08-06T03:47:22;98988.72;;;20.44;100.00
39793;BME280;26080;42.264;24.536;2022-08-06T03:50:06;98990.38;;;20.45;100.00
39793;BME280;26080;42.264;24.536;2022-08-06T03:52:38;98984.78;;;20.48;100.00
39793;BME280;26080;42.264;24.536;2022-08-06T03:55:06;99000.72;;;20.57;100.00
39793;BME280;26080;42.264;24.536;2022-08-06T03:57:35;98978.25;;;20.79;100.00
39793;BME280;26080;42.264;24.536;2022-08-06T04:00:04;98979.59;;;21.57;100.00
39793;BME280;26080;42.264;24.536;2022-08-06T04:02:37;98985.03;;;21.66;100.00
39793;BME280;26080;42.264;24.536;2022-08-06T04:05:05;98988.69;;;22.18;100.00
39793;BME280;26080;42.264;24.536;2022-08-06T04:07:32;98989.13;;;23.01;100.00
39793;BME280;26080;42.264;24.536;2022-08-06T04:09:59;98991.28;;;23.31;98.64
39793;BME280;26080;42.264;24.536;2022-08-06T04:12:26;98989.41;;;23.24;96.74
39793;BME280;26080;42.264;24.536;2022-08-06T04:14:52;98992.63;;;23.35;95.42
39793;BME280;26080;42.264;24.536;2022-08-06T04:17:19;98995.88;;;24.14;92.33
39793;BME280;26080;42.264;24.536;2022-08-06T04:19:46;98986.13;;;24.86;87.84
39793;BME280;26080;42.264;24.536;2022-08-06T04:22:13;99004.59;;;25.36;84.71
39793;BME280;26080;42.264;24.536;2022-08-06T04:24:39;98999.47;;;26.35;78.82
39793;BME280;26080;42.264;24.536;2022-08-06T04:27:05;98992.53;;;27.01;74.28
39793;BME280;26080;42.264;24.536;2022-08-06T04:29:33;98989.09;;;26.32;74.17
39793;BME280;26080;42.264;24.536;2022-08-06T04:32:01;98998.16;;;25.46;77.89
39793;BME280;26080;42.264;24.536;2022-08-06T04:34:28;98970.72;;;24.88;79.53
39793;BME280;26080;42.264;24.536;2022-08-06T04:36:59;98997.81;;;24.93;79.83
39793;BME280;26080;42.264;24.536;2022-08-06T04:39:25;99000.88;;;24.74;80.50
39793;BME280;26080;42.264;24.536;2022-08-06T04:41:53;98986.34;;;24.36;82.61
39793;BME280;26080;42.264;24.536;2022-08-06T04:44:19;98995.69;;;24.07;85.04
39793;BME280;26080;42.264;24.536;2022-08-06T04:46:46;98997.66;;;23.89;85.67
39793;BME280;26080;42.264;24.536;2022-08-06T04:49:15;98996.66;;;23.98;86.06
39793;BME280;26080;42.264;24.536;2022-08-06T04:51:48;99001.84;;;23.91;86.76
39793;BME280;26080;42.264;24.536;2022-08-06T04:54:15;99002.56;;;24.26;86.04
39793;BME280;26080;42.264;24.536;2022-08-06T04:56:41;98993.50;;;24.84;86.46
39793;BME280;26080;42.264;24.536;2022-08-06T04:59:06;99000.53;;;24.85;89.59
39793;BME280;26080;42.264;24.536;2022-08-06T05:01:32;99005.16;;;25.07;89.11
39793;BME280;26080;42.264;24.536;2022-08-06T05:03:57;99012.53;;;25.14;89.04
39793;BME280;26080;42.264;24.536;2022-08-06T05:06:44;99013.31;;;25.30;88.67
39793;BME280;26080;42.264;24.536;2022-08-06T05:09:15;99001.72;;;25.38;88.95
39793;BME280;26080;42.264;24.536;2022-08-06T05:11:50;99010.38;;;25.48;88.51
39793;BME280;26080;42.264;24.536;2022-08-06T05:14:22;99013.78;;;25.42;88.33
39793;BME280;26080;42.264;24.536;2022-08-06T05:16:50;99004.88;;;25.50;87.69
39793;BME280;26080;42.264;24.536;2022-08-06T05:19:21;99018.13;;;25.35;89.21
39793;BME280;26080;42.264;24.536;2022-08-06T05:21:51;99016.75;;;25.47;88.57
39793;BME280;26080;42.264;24.536;2022-08-06T05:24:18;99012.00;;;25.65;84.35
39793;BME280;26080;42.264;24.536;2022-08-06T05:26:44;99008.66;;;25.63;85.61
39793;BME280;26080;42.264;24.536;2022-08-06T05:29:11;99014.41;;;25.52;83.93
39793;BME280;26080;42.264;24.536;2022-08-06T05:31:37;99015.16;;;25.30;85.64
39793;BME280;26080;42.264;24.536;2022-08-06T05:34:11;99009.31;;;25.65;84.58
39793;BME280;26080;42.264;24.536;2022-08-06T05:36:37;99005.78;;;25.96;82.49
39793;BME280;26080;42.264;24.536;2022-08-06T05:39:03;98990.16;;;25.99;83.11
39793;BME280;26080;42.264;24.536;2022-08-06T05:41:29;99009.97;;;26.21;80.72
39793;BME280;26080;42.264;24.536;2022-08-06T05:43:54;99012.31;;;26.24;77.53
39793;BME280;26080;42.264;24.536;2022-08-06T05:46:21;99019.28;;;26.34;77.15
39793;BME280;26080;42.264;24.536;2022-08-06T05:49:06;99012.72;;;26.13;75.88
39793;BME280;26080;42.264;24.536;2022-08-06T05:54:32;99010.16;;;25.97;77.35
39793;BME280;26080;42.264;24.536;2022-08-06T05:57:06;99015.63;;;26.04;78.71
39793;BME280;26080;42.264;24.536;2022-08-06T05:59:38;99007.66;;;26.18;78.75
39793;BME280;26080;42.264;24.536;2022-08-06T06:02:05;99008.59;;;26.25;78.58
39793;BME280;26080;42.264;24.536;2022-08-06T06:04:32;98994.91;;;26.20;79.33
39793;BME280;26080;42.264;24.536;2022-08-06T06:06:58;99002.88;;;26.51;78.54
39793;BME280;26080;42.264;24.536;2022-08-06T06:09:24;99004.78;;;26.80;75.95
39793;BME280;26080;42.264;24.536;2022-08-06T06:11:51;99002.84;;;26.89;75.68
39793;BME280;26080;42.264;24.536;2022-08-06T06:14:41;98998.50;;;26.73;73.31
39793;BME280;26080;42.264;24.536;2022-08-06T06:22:51;98992.19;;;26.96;71.19
39793;BME280;26080;42.264;24.536;2022-08-06T06:25:29;98996.38;;;27.13;72.05
39793;BME280;26080;42.264;24.536;2022-08-06T06:28:05;98989.81;;;27.30;70.38
39793;BME280;26080;42.264;24.536;2022-08-06T06:30:42;98989.88;;;27.52;69.96
39793;BME280;26080;42.264;24.536;2022-08-06T06:35:57;98985.47;;;27.80;73.24
39793;BME280;26080;42.264;24.536;2022-08-06T06:40:58;98949.31;;;27.68;71.43
39793;BME280;26080;42.264;24.536;2022-08-06T06:46:11;98972.75;;;28.10;71.27
39793;BME280;26080;42.264;24.536;2022-08-06T06:48:45;98976.09;;;28.33;70.12
39793;BME280;26080;42.264;24.536;2022-08-06T06:51:30;98948.59;;;28.23;70.55
39793;BME280;26080;42.264;24.536;2022-08-06T06:53:57;98973.25;;;28.42;68.87
39793;BME280;26080;42.264;24.536;2022-08-06T06:56:29;98973.94;;;28.50;68.83
39793;BME280;26080;42.264;24.536;2022-08-06T07:01:25;98965.59;;;28.67;64.96
39793;BME280;26080;42.264;24.536;2022-08-06T07:03:53;98971.25;;;28.50;64.63
39793;BME280;26080;42.264;24.536;2022-08-06T07:06:20;98970.16;;;28.73;64.18
39793;BME280;26080;42.264;24.536;2022-08-06T07:08:48;98956.00;;;28.64;62.20
39793;BME280;26080;42.264;24.536;2022-08-06T07:11:22;98960.94;;;28.54;62.83
39793;BME280;26080;42.264;24.536;2022-08-06T07:13:50;98965.84;;;28.50;62.21
39793;BME280;26080;42.264;24.536;2022-08-06T07:16:20;98958.56;;;28.44;60.92
39793;BME280;26080;42.264;24.536;2022-08-06T07:18:47;98964.06;;;28.57;62.94
39793;BME280;26080;42.264;24.536;2022-08-06T07:21:16;98958.34;;;28.74;59.36
39793;BME280;26080;42.264;24.536;2022-08-06T07:23:44;98956.47;;;28.68;61.65
39793;BME280;26080;42.264;24.536;2022-08-06T07:26:12;98965.91;;;28.85;62.43
39793;BME280;26080;42.264;24.536;2022-08-06T07:28:38;98960.91;;;29.10;63.06
39793;BME280;26080;42.264;24.536;2022-08-06T07:31:05;98962.25;;;29.34;62.83
39793;BME280;26080;42.264;24.536;2022-08-06T07:33:33;98951.91;;;29.44;61.21
39793;BME280;26080;42.264;24.536;2022-08-06T07:36:00;98948.59;;;29.42;61.50
39793;BME280;26080;42.264;24.536;2022-08-06T07:38:31;98949.50;;;29.14;61.08
39793;BME280;26080;42.264;24.536;2022-08-06T07:41:03;98960.47;;;29.06;63.13
39793;BME280;26080;42.264;24.536;2022-08-06T07:43:42;98951.66;;;28.91;61.49
39793;BME280;26080;42.264;24.536;2022-08-06T07:46:10;98950.19;;;28.60;63.54
39793;BME280;26080;42.264;24.536;2022-08-06T07:48:41;98939.19;;;28.55;63.55
39793;BME280;26080;42.264;24.536;2022-08-06T07:51:08;98954.84;;;28.73;63.96
39793;BME280;26080;42.264;24.536;2022-08-06T07:53:35;98949.09;;;28.83;61.56
39793;BME280;26080;42.264;24.536;2022-08-06T07:56:05;98951.78;;;29.11;65.23
39793;BME280;26080;42.264;24.536;2022-08-06T07:58:32;98949.09;;;29.17;61.43
39793;BME280;26080;42.264;24.536;2022-08-06T08:00:59;98939.84;;;29.33;61.13
39793;BME280;26080;42.264;24.536;2022-08-06T08:03:25;98939.34;;;29.71;61.92
39793;BME280;26080;42.264;24.536;2022-08-06T08:06:11;98932.16;;;29.91;60.52
39793;BME280;26080;42.264;24.536;2022-08-06T08:08:53;98944.22;;;30.15;57.63
39793;BME280;26080;42.264;24.536;2022-08-06T08:11:19;98941.34;;;30.36;54.43
39793;BME280;26080;42.264;24.536;2022-08-06T08:13:46;98939.66;;;30.49;55.88
39793;BME280;26080;42.264;24.536;2022-08-06T08:16:14;98946.53;;;30.64;57.82
39793;BME280;26080;42.264;24.536;2022-08-06T08:18:40;98929.88;;;30.67;54.24
39793;BME280;26080;42.264;24.536;2022-08-06T08:21:06;98948.81;;;30.74;56.74
39793;BME280;26080;42.264;24.536;2022-08-06T08:23:34;98948.41;;;30.64;56.09
39793;BME280;26080;42.264;24.536;2022-08-06T08:26:02;98938.81;;;30.81;52.76
39793;BME280;26080;42.264;24.536;2022-08-06T08:28:27;98934.25;;;30.75;54.18
39793;BME280;26080;42.264;24.536;2022-08-06T08:30:55;98931.72;;;30.93;56.64
39793;BME280;26080;42.264;24.536;2022-08-06T08:33:24;98923.78;;;31.05;54.62
39793;BME280;26080;42.264;24.536;2022-08-06T08:35:49;98922.06;;;31.17;53.12
39793;BME280;26080;42.264;24.536;2022-08-06T08:38:15;98913.75;;;31.26;53.44
39793;BME280;26080;42.264;24.536;2022-08-06T08:40:41;98917.41;;;31.44;52.27
39793;BME280;26080;42.264;24.536;2022-08-06T08:43:07;98922.47;;;31.28;50.92
39793;BME280;26080;42.264;24.536;2022-08-06T08:45:37;98911.09;;;31.57;51.49
39793;BME280;26080;42.264;24.536;2022-08-06T08:48:04;98912.69;;;31.65;52.73
39793;BME280;26080;42.264;24.536;2022-08-06T08:50:31;98904.13;;;31.74;51.16
39793;BME280;26080;42.264;24.536;2022-08-06T08:53:14;98911.56;;;31.86;49.43
39793;BME280;26080;42.264;24.536;2022-08-06T08:55:43;98922.06;;;32.00;52.54
39793;BME280;26080;42.264;24.536;2022-08-06T08:58:12;98911.47;;;32.24;51.95
39793;BME280;26080;42.264;24.536;2022-08-06T09:00:40;98909.56;;;32.31;51.42
39793;BME280;26080;42.264;24.536;2022-08-06T09:03:06;98912.03;;;32.32;51.60
39793;BME280;26080;42.264;24.536;2022-08-06T09:05:33;98905.66;;;32.45;48.93
39793;BME280;26080;42.264;24.536;2022-08-06T09:08:01;98906.13;;;32.60;48.61
39793;BME280;26080;42.264;24.536;2022-08-06T09:10:29;98897.44;;;32.77;47.70
39793;BME280;26080;42.264;24.536;2022-08-06T09:12:54;98895.50;;;32.84;47.45
39793;BME280;26080;42.264;24.536;2022-08-06T09:15:20;98895.97;;;32.56;48.55
39793;BME280;26080;42.264;24.536;2022-08-06T09:17:47;98892.94;;;32.46;48.39
39793;BME280;26080;42.264;24.536;2022-08-06T09:20:13;98891.25;;;32.51;48.62
39793;BME280;26080;42.264;24.536;2022-08-06T09:22:39;98885.81;;;32.51;49.52
39793;BME280;26080;42.264;24.536;2022-08-06T09:25:04;98885.03;;;32.44;48.44
39793;BME280;26080;42.264;24.536;2022-08-06T09:27:34;98887.00;;;32.37;47.44
39793;BME280;26080;42.264;24.536;2022-08-06T09:30:04;98888.75;;;32.25;46.57
39793;BME280;26080;42.264;24.536;2022-08-06T09:32:45;98877.34;;;31.91;47.28
39793;BME280;26080;42.264;24.536;2022-08-06T09:37:44;98874.75;;;31.71;47.71
39793;BME280;26080;42.264;24.536;2022-08-06T09:40:19;98869.75;;;31.75;49.47
39793;BME280;26080;42.264;24.536;2022-08-06T09:42:47;98881.50;;;31.94;50.38
39793;BME280;26080;42.264;24.536;2022-08-06T09:45:19;98851.81;;;32.05;47.99
39793;BME280;26080;42.264;24.536;2022-08-06T09:47:46;98873.09;;;32.27;46.22
39793;BME280;26080;42.264;24.536;2022-08-06T09:50:12;98871.41;;;32.32;46.65
39793;BME280;26080;42.264;24.536;2022-08-06T09:52:37;98874.94;;;32.33;45.97
39793;BME280;26080;42.264;24.536;2022-08-06T09:55:03;98874.34;;;32.31;45.69
39793;BME280;26080;42.264;24.536;2022-08-06T09:57:43;98872.66;;;32.05;44.53
39793;BME280;26080;42.264;24.536;2022-08-06T10:00:10;98873.09;;;32.02;46.05
39793;BME280;26080;42.264;24.536;2022-08-06T10:02:35;98876.97;;;32.12;46.85
39793;BME280;26080;42.264;24.536;2022-08-06T10:05:13;98864.91;;;32.33;44.39
39793;BME280;26080;42.264;24.536;2022-08-06T10:07:38;98853.56;;;32.43;44.71
39793;BME280;26080;42.264;24.536;2022-08-06T10:10:05;98849.75;;;32.69;44.08
39793;BME280;26080;42.264;24.536;2022-08-06T10:12:31;98859.97;;;32.92;43.33
39793;BME280;26080;42.264;24.536;2022-08-06T10:14:59;98851.34;;;32.77;41.65
39793;BME280;26080;42.264;24.536;2022-08-06T10:17:25;98849.19;;;32.85;42.33
39793;BME280;26080;42.264;24.536;2022-08-06T10:20:07;98840.56;;;32.88;41.05
39793;BME280;26080;42.264;24.536;2022-08-06T10:22:33;98842.47;;;32.88;42.25
39793;BME280;26080;42.264;24.536;2022-08-06T10:25:01;98838.53;;;33.02;41.27
39793;BME280;26080;42.264;24.536;2022-08-06T10:27:33;98831.84;;;33.05;41.52
39793;BME280;26080;42.264;24.536;2022-08-06T10:30:05;98833.72;;;33.04;41.66
39793;BME280;26080;42.264;24.536;2022-08-06T10:32:36;98817.88;;;33.01;41.96
39793;BME280;26080;42.264;24.536;2022-08-06T10:35:05;98803.88;;;33.04;44.35
39793;BME280;26080;42.264;24.536;2022-08-06T10:37:33;98833.44;;;33.24;45.30
39793;BME280;26080;42.264;24.536;2022-08-06T10:40:02;98824.00;;;33.45;45.97
39793;BME280;26080;42.264;24.536;2022-08-06T10:42:29;98830.75;;;33.54;43.48
39793;BME280;26080;42.264;24.536;2022-08-06T10:44:55;98820.03;;;33.71;41.39
39793;BME280;26080;42.264;24.536;2022-08-06T10:47:21;98822.38;;;33.67;42.75
39793;BME280;26080;42.264;24.536;2022-08-06T10:49:48;98817.28;;;33.89;43.22
39793;BME280;26080;42.264;24.536;2022-08-06T10:52:14;98810.88;;;33.95;41.21
39793;BME280;26080;42.264;24.536;2022-08-06T10:54:40;98810.19;;;34.00;40.75
39793;BME280;26080;42.264;24.536;2022-08-06T10:57:09;98806.03;;;34.09;41.26
39793;BME280;26080;42.264;24.536;2022-08-06T10:59:40;98798.13;;;34.07;41.14
39793;BME280;26080;42.264;24.536;2022-08-06T11:04:54;98792.81;;;34.48;41.43
39793;BME280;26080;42.264;24.536;2022-08-06T11:13:08;98791.38;;;34.57;39.28
39793;BME280;26080;42.264;24.536;2022-08-06T11:15:36;98792.22;;;34.45;43.08
39793;BME280;26080;42.264;24.536;2022-08-06T11:18:09;98792.13;;;34.40;40.92
39793;BME280;26080;42.264;24.536;2022-08-06T11:20:36;98783.13;;;34.16;40.37
39793;BME280;26080;42.264;24.536;2022-08-06T11:28:10;98791.63;;;34.20;40.50
39793;BME280;26080;42.264;24.536;2022-08-06T11:33:06;98792.56;;;34.26;41.19
39793;BME280;26080;42.264;24.536;2022-08-06T11:37:58;98790.56;;;34.33;40.10
39793;BME280;26080;42.264;24.536;2022-08-06T11:40:24;98782.50;;;34.26;39.69
39793;BME280;26080;42.264;24.536;2022-08-06T11:42:50;98782.91;;;34.41;40.10
39793;BME280;26080;42.264;24.536;2022-08-06T11:45:17;98785.13;;;34.56;38.32
39793;BME280;26080;42.264;24.536;2022-08-06T11:48:05;98778.25;;;34.54;39.38
39793;BME280;26080;42.264;24.536;2022-08-06T11:50:31;98773.66;;;34.54;41.57
39793;BME280;26080;42.264;24.536;2022-08-06T11:52:58;98772.03;;;34.41;38.76
39793;BME280;26080;42.264;24.536;2022-08-06T11:55:24;98777.22;;;34.55;38.43
39793;BME280;26080;42.264;24.536;2022-08-06T12:00:59;98778.72;;;34.62;37.39
39793;BME280;26080;42.264;24.536;2022-08-06T12:03:40;98765.91;;;34.74;34.97
39793;BME280;26080;42.264;24.536;2022-08-06T12:06:24;98767.38;;;34.54;38.46
39793;BME280;26080;42.264;24.536;2022-08-06T12:09:08;98766.81;;;34.28;38.31
39793;BME280;26080;42.264;24.536;2022-08-06T12:11:33;98760.44;;;34.34;38.27
39793;BME280;26080;42.264;24.536;2022-08-06T12:14:00;98757.22;;;34.26;39.22
39793;BME280;26080;42.264;24.536;2022-08-06T12:16:31;98752.03;;;34.36;39.51
39793;BME280;26080;42.264;24.536;2022-08-06T12:18:57;98732.66;;;34.32;39.19
39793;BME280;26080;42.264;24.536;2022-08-06T12:21:23;98748.94;;;34.56;40.62
39793;BME280;26080;42.264;24.536;2022-08-06T12:23:52;98739.72;;;34.57;38.70
39793;BME280;26080;42.264;24.536;2022-08-06T12:26:19;98725.84;;;34.70;38.27
39793;BME280;26080;42.264;24.536;2022-08-06T12:28:45;98737.34;;;35.00;36.33
39793;BME280;26080;42.264;24.536;2022-08-06T12:31:11;98731.56;;;34.97;37.09
39793;BME280;26080;42.264;24.536;2022-08-06T12:33:43;98724.63;;;35.06;35.95
39793;BME280;26080;42.264;24.536;2022-08-06T12:36:08;98718.91;;;35.36;34.07
39793;BME280;26080;42.264;24.536;2022-08-06T12:38:34;98702.44;;;35.43;34.21
39793;BME280;26080;42.264;24.536;2022-08-06T12:41:07;98724.44;;;35.75;36.16
39793;BME280;26080;42.264;24.536;2022-08-06T12:43:34;98717.94;;;35.93;31.21
39793;BME280;26080;42.264;24.536;2022-08-06T12:46:05;98722.22;;;35.88;33.63
39793;BME280;26080;42.264;24.536;2022-08-06T12:48:32;98716.94;;;35.82;33.82
39793;BME280;26080;42.264;24.536;2022-08-06T12:51:09;98713.63;;;35.63;34.41
39793;BME280;26080;42.264;24.536;2022-08-06T12:53:49;98707.06;;;35.42;33.00
39793;BME280;26080;42.264;24.536;2022-08-06T12:56:16;98721.28;;;35.16;34.91
39793;BME280;26080;42.264;24.536;2022-08-06T12:58:43;98712.28;;;34.98;35.08
39793;BME280;26080;42.264;24.536;2022-08-06T13:01:15;98709.81;;;34.85;33.58
39793;BME280;26080;42.264;24.536;2022-08-06T13:03:46;98704.75;;;34.49;33.52
39793;BME280;26080;42.264;24.536;2022-08-06T13:06:14;98672.22;;;34.54;34.84
39793;BME280;26080;42.264;24.536;2022-08-06T13:08:40;98690.06;;;34.61;34.83
39793;BME280;26080;42.264;24.536;2022-08-06T13:11:06;98703.09;;;34.88;34.29
39793;BME280;26080;42.264;24.536;2022-08-06T13:13:41;98693.94;;;34.94;37.93
39793;BME280;26080;42.264;24.536;2022-08-06T13:16:11;98697.78;;;35.10;35.28
39793;BME280;26080;42.264;24.536;2022-08-06T13:18:41;98694.81;;;35.28;35.56
39793;BME280;26080;42.264;24.536;2022-08-06T13:21:18;98682.09;;;35.00;34.35
39793;BME280;26080;42.264;24.536;2022-08-06T13:23:50;98684.38;;;34.91;34.27
39793;BME280;26080;42.264;24.536;2022-08-06T13:26:21;98689.97;;;34.85;34.21
39793;BME280;26080;42.264;24.536;2022-08-06T13:29:47;98683.56;;;34.79;34.37
39793;BME280;26080;42.264;24.536;2022-08-06T13:32:08;98693.38;;;34.52;34.43
39793;BME280;26080;42.264;24.536;2022-08-06T13:34:52;98698.41;;;34.43;35.29
39793;BME280;26080;42.264;24.536;2022-08-06T13:40:08;98674.38;;;33.76;35.54
39793;BME280;26080;42.264;24.536;2022-08-06T13:42:55;98678.16;;;33.64;36.57
39793;BME280;26080;42.264;24.536;2022-08-06T13:45:24;98674.13;;;33.78;36.86
39793;BME280;26080;42.264;24.536;2022-08-06T13:47:50;98685.31;;;33.58;36.74
39793;BME280;26080;42.264;24.536;2022-08-06T13:50:20;98690.06;;;33.51;37.33
39793;BME280;26080;42.264;24.536;2022-08-06T13:52:46;98689.72;;;33.47;37.67
39793;BME280;26080;42.264;24.536;2022-08-06T13:55:12;98684.03;;;33.49;37.62